createdAt,value
2019-01-08T00:00:39.223Z,2.00
2019-01-08T00:03:09.203Z,2.00
2019-01-08T00:05:39.198Z,2.00
2019-01-08T00:08:09.187Z,2.00
2019-01-08T00:10:39.158Z,2.00
2019-01-08T00:13:09.163Z,2.00
2019-01-08T00:15:39.163Z,2.00
2019-01-08T00:18:09.147Z,2.00
2019-01-08T00:20:39.115Z,2.00
2019-01-08T00:23:09.174Z,2.00
2019-01-08T00:25:39.225Z,2.00
2019-01-08T00:28:09.267Z,1.90
2019-01-08T00:30:39.265Z,2.00
2019-01-08T00:33:09.243Z,1.90
2019-01-08T00:35:39.261Z,2.00
2019-01-08T00:38:09.332Z,2.00
2019-01-08T00:40:39.398Z,2.00
2019-01-08T00:43:09.381Z,2.00
2019-01-08T00:45:39.348Z,2.00
2019-01-08T00:48:09.326Z,2.00
2019-01-08T00:50:39.376Z,2.00
2019-01-08T00:53:09.454Z,2.10
2019-01-08T00:55:40.208Z,2.10
2019-01-08T00:58:10.210Z,2.10
2019-01-08T01:00:40.174Z,2.00
2019-01-08T01:03:10.145Z,2.00
2019-01-08T01:05:40.138Z,2.00
2019-01-08T01:08:10.110Z,1.90
2019-01-08T01:10:40.177Z,2.00
2019-01-08T01:13:10.246Z,1.90
2019-01-08T01:15:40.744Z,1.90
2019-01-08T01:18:10.724Z,1.90
2019-01-08T01:20:40.790Z,1.90
2019-01-08T01:23:10.867Z,1.90
2019-01-08T01:25:40.896Z,2.00
2019-01-08T01:28:10.879Z,2.10
2019-01-08T01:30:40.935Z,2.00
2019-01-08T01:33:10.912Z,2.00
2019-01-08T01:35:40.895Z,2.00
2019-01-08T01:38:10.874Z,2.00
2019-01-08T01:40:40.912Z,2.00
2019-01-08T01:43:10.967Z,1.90
2019-01-08T01:45:40.988Z,2.00
2019-01-08T01:48:10.960Z,1.90
2019-01-08T01:50:40.951Z,2.00
2019-01-08T01:53:11.015Z,2.10
2019-01-08T01:55:41.024Z,2.10
2019-01-08T01:58:11.072Z,2.20
2019-01-08T02:00:41.139Z,2.10
2019-01-08T02:03:11.185Z,2.20
2019-01-08T02:05:41.154Z,2.10
2019-01-08T02:08:11.141Z,2.10
2019-01-08T02:10:41.134Z,1.90
2019-01-08T02:13:11.095Z,2.00
2019-01-08T02:15:41.078Z,1.90
2019-01-08T02:18:11.039Z,1.90
2019-01-08T02:20:41.039Z,1.90
2019-01-08T02:23:11.140Z,1.90
2019-01-08T02:25:41.108Z,1.90
2019-01-08T02:28:11.071Z,2.00
2019-01-08T02:30:41.122Z,1.90
2019-01-08T02:33:11.116Z,1.90
2019-01-08T02:35:41.174Z,1.80
2019-01-08T02:38:11.158Z,1.80
2019-01-08T02:40:41.210Z,1.80
2019-01-08T02:43:11.204Z,1.80
2019-01-08T02:45:41.247Z,1.70
2019-01-08T02:48:11.223Z,1.70
2019-01-08T02:50:41.216Z,1.70
2019-01-08T02:53:11.260Z,1.50
2019-01-08T02:55:41.243Z,1.50
2019-01-08T02:58:11.234Z,1.40
2019-01-08T03:00:41.285Z,1.40
2019-01-08T03:03:11.238Z,1.40
2019-01-08T03:05:41.215Z,1.40
2019-01-08T03:08:11.161Z,1.30
2019-01-08T03:10:41.169Z,1.30
2019-01-08T03:13:11.148Z,1.40
2019-01-08T03:15:41.142Z,1.40
2019-01-08T03:18:11.122Z,1.40
2019-01-08T03:20:41.156Z,1.40
2019-01-08T03:23:11.713Z,1.40
2019-01-08T03:25:41.814Z,1.40
2019-01-08T03:28:11.795Z,1.40
2019-01-08T03:30:41.851Z,1.50
2019-01-08T03:33:11.983Z,1.40
2019-01-08T03:35:42.016Z,1.30
2019-01-08T03:38:11.988Z,1.20
2019-01-08T03:40:41.961Z,1.20
2019-01-08T03:43:11.944Z,1.20
2019-01-08T03:45:41.904Z,1.20
2019-01-08T03:48:11.873Z,1.30
2019-01-08T03:50:41.836Z,1.30
2019-01-08T03:53:11.806Z,1.30
2019-01-08T03:55:41.824Z,1.30
2019-01-08T03:58:11.789Z,1.30
2019-01-08T04:00:41.811Z,1.30
2019-01-08T04:03:11.763Z,1.30
2019-01-08T04:05:41.865Z,1.30
2019-01-08T04:08:11.838Z,1.30
2019-01-08T04:10:41.795Z,1.30
2019-01-08T04:13:11.766Z,1.30
2019-01-08T04:15:41.727Z,1.40
2019-01-08T04:18:11.769Z,1.40
2019-01-08T04:20:41.751Z,1.50
2019-01-08T04:23:11.861Z,1.50
2019-01-08T04:25:41.827Z,1.50
2019-01-08T04:28:11.807Z,1.50
2019-01-08T04:30:41.857Z,1.50
2019-01-08T04:33:11.843Z,1.50
2019-01-08T04:35:41.821Z,1.60
2019-01-08T04:38:11.795Z,1.60
2019-01-08T04:40:41.857Z,1.60
2019-01-08T04:43:11.837Z,1.60
2019-01-08T04:45:41.837Z,1.60
2019-01-08T04:48:11.871Z,1.70
2019-01-08T04:50:41.855Z,1.60
2019-01-08T04:53:11.825Z,1.60
2019-01-08T04:55:41.913Z,1.60
2019-01-08T04:58:11.971Z,1.70
2019-01-08T05:00:42.001Z,1.70
2019-01-08T05:03:11.957Z,1.70
2019-01-08T05:05:41.939Z,1.70
2019-01-08T05:08:11.942Z,1.70
2019-01-08T05:10:41.919Z,1.70
2019-01-08T05:13:11.991Z,1.70
2019-01-08T05:15:41.984Z,1.70
2019-01-08T05:18:11.976Z,1.80
2019-01-08T05:20:41.930Z,1.80
2019-01-08T05:23:11.921Z,1.90
2019-01-08T05:25:41.931Z,1.80
2019-01-08T05:28:11.911Z,1.80
2019-01-08T05:30:41.939Z,1.90
2019-01-08T05:33:11.989Z,1.90
2019-01-08T05:35:42.035Z,1.90
2019-01-08T05:38:12.003Z,1.90
2019-01-08T05:40:42.054Z,1.80
2019-01-08T05:43:12.100Z,1.80
2019-01-08T05:45:42.130Z,1.80
2019-01-08T05:48:12.094Z,1.80
2019-01-08T05:50:42.277Z,1.70
2019-01-08T05:53:12.324Z,1.60
2019-01-08T05:55:42.374Z,1.60
2019-01-08T05:58:12.376Z,1.70
2019-01-08T06:00:42.439Z,1.60
2019-01-08T06:03:12.426Z,1.70
2019-01-08T06:05:42.405Z,1.70
2019-01-08T06:08:12.394Z,1.70
2019-01-08T06:10:42.380Z,1.60
2019-01-08T06:13:12.364Z,1.60
2019-01-08T06:15:42.314Z,1.60
2019-01-08T06:18:12.322Z,1.60
2019-01-08T06:20:42.304Z,1.60
2019-01-08T06:23:12.374Z,1.60
2019-01-08T06:25:42.364Z,1.50
2019-01-08T06:28:12.345Z,1.60
2019-01-08T06:30:42.373Z,1.60
2019-01-08T06:33:12.360Z,1.60
2019-01-08T06:35:42.365Z,1.60
2019-01-08T06:38:12.387Z,1.60
2019-01-08T06:40:42.536Z,1.60
2019-01-08T06:43:12.533Z,1.70
2019-01-08T06:45:42.604Z,1.70
2019-01-08T06:48:12.606Z,1.60
2019-01-08T06:50:42.617Z,1.60
2019-01-08T06:53:12.765Z,1.70
2019-01-08T06:55:42.751Z,1.70
2019-01-08T06:58:12.756Z,1.80
2019-01-08T07:00:42.737Z,1.80
2019-01-08T07:03:12.701Z,1.80
2019-01-08T07:05:42.773Z,1.80
2019-01-08T07:08:12.801Z,1.80
2019-01-08T07:10:42.841Z,1.80
2019-01-08T07:13:12.919Z,1.80
2019-01-08T07:15:42.993Z,1.80
2019-01-08T07:18:12.994Z,1.90
2019-01-08T07:20:43.061Z,1.90
2019-01-08T07:23:13.047Z,1.80
2019-01-08T07:25:43.041Z,1.90
2019-01-08T07:28:13.080Z,1.90
2019-01-08T07:30:43.219Z,1.90
2019-01-08T07:33:13.222Z,1.90
2019-01-08T07:35:43.215Z,1.90
2019-01-08T07:38:13.184Z,2.00
2019-01-08T07:40:43.181Z,2.10
2019-01-08T07:43:13.240Z,2.10
2019-01-08T07:45:43.294Z,2.20
2019-01-08T07:48:13.363Z,2.20
2019-01-08T07:50:43.350Z,2.30
2019-01-08T07:53:13.386Z,2.30
2019-01-08T07:55:43.486Z,2.30
2019-01-08T07:58:13.570Z,2.30
2019-01-08T08:00:49.935Z,2.20
2019-01-08T08:03:15.303Z,2.30
2019-01-08T08:05:45.285Z,2.40
2019-01-08T08:08:15.238Z,2.40
2019-01-08T08:10:45.288Z,2.40
2019-01-08T08:13:15.368Z,2.40
2019-01-08T08:15:45.362Z,2.40
2019-01-08T08:18:15.337Z,2.30
2019-01-08T08:20:45.374Z,2.30
2019-01-08T08:23:15.452Z,2.40
2019-01-08T08:25:45.479Z,2.40
2019-01-08T08:28:15.502Z,2.40
2019-01-08T08:30:45.496Z,2.50
2019-01-08T08:33:15.571Z,2.50
2019-01-08T08:35:45.616Z,2.50
2019-01-08T08:38:15.596Z,2.50
2019-01-08T08:40:45.694Z,2.60
2019-01-08T08:43:15.780Z,2.60
2019-01-08T08:45:45.927Z,2.70
2019-01-08T08:48:15.985Z,2.70
2019-01-08T08:50:46.047Z,2.80
2019-01-08T08:53:16.095Z,2.60
2019-01-08T08:55:46.154Z,2.60
2019-01-08T08:58:16.164Z,2.60
2019-01-08T09:00:46.145Z,2.70
2019-01-08T09:03:16.209Z,2.60
2019-01-08T09:05:46.202Z,2.70
2019-01-08T09:08:17.080Z,2.80
2019-01-08T09:10:47.040Z,3.10
2019-01-08T09:13:17.043Z,3.20
2019-01-08T09:15:47.165Z,3.10
2019-01-08T09:18:17.269Z,3.20
2019-01-08T09:20:47.333Z,3.30
2019-01-08T09:23:17.417Z,3.30
2019-01-08T09:25:47.429Z,3.40
2019-01-08T09:28:17.515Z,3.30
2019-01-08T09:30:47.522Z,3.10
2019-01-08T09:33:17.631Z,3.10
2019-01-08T09:35:47.627Z,2.90
2019-01-08T09:38:17.625Z,2.90
2019-01-08T09:40:47.691Z,2.80
2019-01-08T09:43:17.767Z,2.90
2019-01-08T09:45:47.831Z,3.00
2019-01-08T09:48:17.845Z,3.50
2019-01-08T09:50:47.819Z,3.20
2019-01-08T09:53:17.884Z,3.30
2019-01-08T09:55:47.884Z,3.70
2019-01-08T09:58:17.974Z,4.00
2019-01-08T10:00:48.055Z,4.30
2019-01-08T10:03:18.140Z,4.50
2019-01-08T10:05:48.220Z,4.60
2019-01-08T10:08:18.342Z,4.80
2019-01-08T10:10:48.421Z,5.10
2019-01-08T10:13:18.539Z,5.00
2019-01-08T10:15:48.506Z,4.60
2019-01-08T10:18:18.580Z,4.40
2019-01-08T10:20:48.664Z,4.20
2019-01-08T10:23:18.720Z,3.90
2019-01-08T10:25:48.754Z,3.70
2019-01-08T10:28:18.836Z,3.50
2019-01-08T10:30:48.818Z,3.70
2019-01-08T10:33:18.800Z,3.60
2019-01-08T10:35:48.790Z,3.70
2019-01-08T10:38:18.838Z,3.60
2019-01-08T10:40:48.908Z,3.50
2019-01-08T10:43:18.914Z,3.40
2019-01-08T10:45:48.897Z,3.30
2019-01-08T10:48:18.943Z,3.30
2019-01-08T10:50:48.956Z,3.30
2019-01-08T10:53:19.022Z,3.40
2019-01-08T10:55:48.997Z,3.30
2019-01-08T10:58:19.100Z,3.40
2019-01-08T11:00:49.170Z,3.40
2019-01-08T11:03:19.141Z,3.40
2019-01-08T11:05:49.213Z,3.60
2019-01-08T11:08:19.192Z,3.70
2019-01-08T11:10:49.191Z,3.80
2019-01-08T11:13:19.250Z,4.20
2019-01-08T11:15:49.334Z,4.70
2019-01-08T11:18:19.450Z,5.00
2019-01-08T11:20:49.418Z,5.40
2019-01-08T11:23:19.460Z,5.70
2019-01-08T11:25:49.453Z,5.80
2019-01-08T11:28:19.431Z,5.60
2019-01-08T11:30:49.415Z,5.50
2019-01-08T11:33:19.450Z,5.40
2019-01-08T11:35:49.479Z,5.10
2019-01-08T11:38:19.485Z,5.10
2019-01-08T11:40:49.467Z,5.20
2019-01-08T11:43:19.612Z,5.30
2019-01-08T11:45:49.583Z,5.00
2019-01-08T11:48:19.675Z,5.10
2019-01-08T11:50:49.750Z,5.30
2019-01-08T11:53:19.792Z,5.20
2019-01-08T11:55:49.883Z,5.00
2019-01-08T11:58:19.977Z,5.10
2019-01-08T12:00:50.017Z,5.10
2019-01-08T12:03:20.075Z,5.10
2019-01-08T12:05:50.033Z,4.90
2019-01-08T12:08:20.055Z,4.90
2019-01-08T12:10:50.177Z,5.00
2019-01-08T12:13:20.167Z,4.70
2019-01-08T12:15:50.167Z,4.70
2019-01-08T12:18:20.333Z,4.60
2019-01-08T12:20:50.327Z,4.30
2019-01-08T12:23:20.414Z,4.10
2019-01-08T12:25:50.407Z,4.10
2019-01-08T12:28:20.469Z,4.30
2019-01-08T12:30:50.518Z,4.30
2019-01-08T12:33:20.509Z,4.20
2019-01-08T12:35:50.530Z,4.30
2019-01-08T12:38:20.593Z,4.40
2019-01-08T12:40:50.660Z,4.40
2019-01-08T12:43:20.703Z,4.40
2019-01-08T12:45:50.773Z,4.60
2019-01-08T12:48:20.858Z,4.90
2019-01-08T12:50:50.843Z,4.80
2019-01-08T12:53:20.931Z,4.70
2019-01-08T12:55:50.991Z,4.70
2019-01-08T12:58:21.093Z,4.70
2019-01-08T13:00:51.101Z,4.60
2019-01-08T13:03:21.186Z,4.60
2019-01-08T13:05:51.331Z,4.60
2019-01-08T13:08:21.338Z,4.60
2019-01-08T13:10:51.410Z,4.70
2019-01-08T13:13:21.526Z,4.70
2019-01-08T13:15:51.611Z,5.10
2019-01-08T13:18:21.688Z,5.40
2019-01-08T13:20:51.700Z,5.60
2019-01-08T13:23:21.754Z,5.70
2019-01-08T13:25:51.767Z,5.70
2019-01-08T13:28:23.524Z,5.60
2019-01-08T13:30:53.699Z,5.70
2019-01-08T13:33:23.753Z,5.30
2019-01-08T13:35:53.847Z,5.00
2019-01-08T13:38:23.928Z,4.70
2019-01-08T13:40:54.205Z,4.50
2019-01-08T13:43:24.209Z,4.40
2019-01-08T13:45:54.300Z,4.30
2019-01-08T13:48:24.374Z,4.20
2019-01-08T13:50:54.423Z,4.10
2019-01-08T13:53:24.497Z,3.90
2019-01-08T13:55:54.471Z,3.80
2019-01-08T13:58:24.497Z,3.80
2019-01-08T14:00:54.555Z,3.70
2019-01-08T14:03:24.629Z,3.70
2019-01-08T14:05:54.695Z,3.60
2019-01-08T14:08:24.753Z,3.50
2019-01-08T14:10:56.592Z,3.50
2019-01-08T14:13:26.555Z,3.60
2019-01-08T14:15:56.565Z,3.60
2019-01-08T14:18:26.655Z,3.60
2019-01-08T14:20:56.675Z,3.60
2019-01-08T14:23:26.717Z,3.40
2019-01-08T14:25:56.787Z,3.30
2019-01-08T14:28:26.854Z,3.30
2019-01-08T14:30:56.926Z,3.20
2019-01-08T14:33:26.913Z,3.30
2019-01-08T14:35:56.974Z,3.20
2019-01-08T14:38:27.184Z,3.10
2019-01-08T14:40:57.330Z,3.10
2019-01-08T14:43:27.464Z,3.20
2019-01-08T14:45:57.528Z,3.20
2019-01-08T14:48:27.680Z,3.20
2019-01-08T14:50:57.838Z,3.10
2019-01-08T14:53:27.930Z,3.10
2019-01-08T14:55:57.989Z,3.10
2019-01-08T14:58:28.000Z,3.10
2019-01-08T15:00:58.046Z,3.10
2019-01-08T15:03:28.116Z,3.10
2019-01-08T15:05:58.305Z,3.00
2019-01-08T15:08:28.434Z,3.10
2019-01-08T15:10:58.457Z,3.10
2019-01-08T15:13:28.445Z,3.00
2019-01-08T15:15:58.568Z,3.00
2019-01-08T15:18:28.684Z,2.90
2019-01-08T15:20:58.762Z,2.80
2019-01-08T15:23:28.838Z,2.70
2019-01-08T15:25:58.992Z,2.70
2019-01-08T15:28:29.007Z,2.70
2019-01-08T15:30:59.018Z,2.70
2019-01-08T15:33:29.142Z,2.70
2019-01-08T15:35:59.148Z,2.70
2019-01-08T15:38:29.153Z,2.70
2019-01-08T15:40:59.143Z,2.60
2019-01-08T15:43:30.487Z,2.50
2019-01-08T15:46:00.676Z,2.60
2019-01-08T15:48:30.851Z,2.50
2019-01-08T15:51:00.882Z,2.60
2019-01-08T15:53:30.983Z,2.60
2019-01-08T15:56:01.072Z,2.50
2019-01-08T15:58:31.153Z,2.50
2019-01-08T16:01:01.212Z,2.50
2019-01-08T16:03:31.345Z,2.50
2019-01-08T16:06:01.465Z,2.50
2019-01-08T16:08:31.562Z,2.50
2019-01-08T16:11:01.765Z,2.60
2019-01-08T16:13:31.922Z,2.50
2019-01-08T16:16:02.233Z,2.60
2019-01-08T16:18:32.384Z,2.50
2019-01-08T16:21:02.406Z,2.50
2019-01-08T16:23:32.749Z,2.60
2019-01-08T16:26:02.804Z,2.60
2019-01-08T16:28:33.181Z,2.60
2019-01-08T16:31:03.699Z,2.60
2019-01-08T16:33:33.794Z,2.60
2019-01-08T16:36:04.071Z,2.50
2019-01-08T16:38:34.201Z,2.50
2019-01-08T16:41:04.216Z,2.50
2019-01-08T16:43:34.290Z,2.60
2019-01-08T16:46:04.435Z,2.60
2019-01-08T16:48:34.533Z,2.50
2019-01-08T16:51:04.543Z,2.50
2019-01-08T16:53:41.233Z,2.50
2019-01-08T16:56:06.480Z,2.50
2019-01-08T16:58:36.641Z,2.50
2019-01-08T17:01:06.722Z,2.50
2019-01-08T17:03:36.845Z,2.40
2019-01-08T17:06:07.036Z,2.40
2019-01-08T17:08:37.171Z,2.30
2019-01-08T17:11:07.276Z,2.30
2019-01-08T17:13:37.400Z,2.30
2019-01-08T17:16:07.576Z,2.30
2019-01-08T17:18:37.704Z,2.20
2019-01-08T17:21:07.916Z,2.30
2019-01-08T17:23:38.102Z,2.20
2019-01-08T17:26:08.336Z,2.20
2019-01-08T17:28:38.534Z,2.10
2019-01-08T17:31:08.719Z,2.10
2019-01-08T17:33:38.807Z,2.10
2019-01-08T17:36:08.968Z,2.00
2019-01-08T17:38:39.110Z,2.00
2019-01-08T17:41:09.266Z,1.90
2019-01-08T17:43:40.700Z,2.00
2019-01-08T17:46:10.935Z,1.90
2019-01-08T17:48:41.060Z,1.90
2019-01-08T17:51:11.201Z,1.90
2019-01-08T17:53:41.689Z,1.90
2019-01-08T17:56:11.812Z,1.80
2019-01-08T17:58:47.296Z,1.80
2019-01-08T18:01:23.832Z,1.80
2019-01-08T18:03:54.159Z,1.80
2019-01-08T18:06:24.368Z,1.70
2019-01-08T18:08:54.718Z,1.80
2019-01-08T18:11:24.866Z,1.80
2019-01-08T18:13:55.113Z,1.80
2019-01-08T18:16:25.560Z,1.80
2019-01-08T18:18:58.220Z,1.80
2019-01-08T18:21:27.668Z,1.80
2019-01-08T18:23:57.870Z,1.80
2019-01-08T18:26:28.119Z,1.80
2019-01-08T18:29:00.725Z,1.70
2019-01-08T18:31:30.971Z,1.70
2019-01-08T18:34:01.210Z,1.70
2019-01-08T18:36:31.448Z,1.70
2019-01-08T18:39:01.755Z,1.70
2019-01-08T18:41:32.062Z,1.60
2019-01-08T18:44:03.275Z,1.60
2019-01-08T18:46:34.793Z,1.60
2019-01-08T18:49:07.920Z,1.60
2019-01-08T18:51:38.357Z,1.70
2019-01-08T18:54:09.516Z,1.70
2019-01-08T18:56:40.227Z,1.60
2019-01-08T18:59:12.342Z,1.60
2019-01-08T19:01:44.799Z,1.60
2019-01-08T19:04:16.668Z,1.60
2019-01-08T19:06:47.718Z,1.60
2019-01-08T19:09:48.625Z,1.60
2019-01-08T19:12:21.623Z,1.60
2019-01-08T19:14:52.704Z,1.50
2019-01-08T19:17:23.638Z,1.60
2019-01-08T19:19:55.466Z,1.50
2019-01-08T19:22:26.387Z,1.60
2019-01-08T19:24:57.316Z,1.60
2019-01-08T19:27:28.338Z,1.50
2019-01-08T19:29:58.975Z,1.60
2019-01-08T19:32:30.519Z,1.60
2019-01-08T19:35:01.400Z,1.60
2019-01-08T19:37:31.872Z,1.60
2019-01-08T19:40:02.853Z,1.60
2019-01-08T19:42:34.499Z,1.60
2019-01-08T19:45:05.596Z,1.60
2019-01-08T19:47:36.124Z,1.60
2019-01-08T19:50:07.774Z,1.70
2019-01-08T19:52:39.355Z,1.70
2019-01-08T19:55:10.200Z,1.70
2019-01-08T19:57:41.358Z,1.70
2019-01-08T20:00:13.973Z,1.70
2019-01-08T20:02:46.180Z,1.70
2019-01-08T20:05:25.461Z,1.70
2019-01-08T20:07:56.532Z,1.70
2019-01-08T20:10:28.489Z,1.80
2019-01-08T20:12:59.691Z,1.80
2019-01-08T20:15:31.188Z,1.90
2019-01-08T20:18:03.278Z,1.90
2019-01-08T20:20:34.614Z,1.80
2019-01-08T20:23:05.930Z,1.90
2019-01-08T20:25:37.793Z,1.90
2019-01-08T20:28:08.300Z,1.90
2019-01-08T20:30:40.614Z,1.90
2019-01-08T20:33:11.822Z,1.80
2019-01-08T20:35:42.477Z,1.90
2019-01-08T20:38:12.805Z,1.90
2019-01-08T20:40:44.179Z,1.90
2019-01-08T20:43:16.669Z,2.00
2019-01-08T20:45:47.173Z,2.00
2019-01-08T20:48:17.449Z,2.00
2019-01-08T20:50:48.273Z,2.00
2019-01-08T20:53:19.101Z,2.00
2019-01-08T20:55:50.146Z,2.00
2019-01-08T20:58:28.718Z,1.90
2019-01-08T21:00:56.136Z,2.00
2019-01-08T21:03:28.719Z,2.00
2019-01-08T21:05:59.340Z,2.00
2019-01-08T21:08:29.970Z,2.00
2019-01-08T21:11:00.192Z,1.90
2019-01-08T21:13:31.319Z,1.90
2019-01-08T21:16:01.605Z,2.00
2019-01-08T21:18:34.663Z,1.90
2019-01-08T21:21:07.727Z,1.90
2019-01-08T21:23:37.999Z,1.90
2019-01-08T21:26:09.055Z,1.80
2019-01-08T21:28:39.505Z,1.80
2019-01-08T21:31:11.433Z,1.80
2019-01-08T21:33:42.913Z,1.80
2019-01-08T21:36:13.075Z,1.80
2019-01-08T21:38:45.285Z,1.80
2019-01-08T21:41:15.447Z,1.80
2019-01-08T21:43:45.627Z,1.80
2019-01-08T21:46:15.854Z,1.90
2019-01-08T21:48:46.232Z,1.80
2019-01-08T21:51:16.848Z,1.80
2019-01-08T21:53:46.985Z,1.90
2019-01-08T21:56:17.125Z,1.90
2019-01-08T21:58:47.266Z,1.90
2019-01-08T22:01:18.207Z,1.90
2019-01-08T22:03:48.457Z,1.90
2019-01-08T22:06:18.648Z,1.90
2019-01-08T22:08:48.775Z,2.00
2019-01-08T22:11:18.918Z,2.00
2019-01-08T22:13:49.113Z,1.90
2019-01-08T22:16:19.209Z,1.90
2019-01-08T22:18:49.302Z,1.90
2019-01-08T22:21:19.297Z,1.90
2019-01-08T22:23:49.321Z,1.90
2019-01-08T22:26:19.600Z,1.80
2019-01-08T22:28:49.588Z,1.80
2019-01-08T22:31:19.588Z,1.80
2019-01-08T22:33:49.644Z,1.70
2019-01-08T22:36:19.722Z,1.70
2019-01-08T22:38:50.533Z,1.70
2019-01-08T22:41:20.756Z,1.70
2019-01-08T22:43:50.746Z,1.70
2019-01-08T22:46:20.781Z,1.70
2019-01-08T22:48:50.758Z,1.70
2019-01-08T22:51:20.756Z,1.70
2019-01-08T22:53:50.748Z,1.70
2019-01-08T22:56:20.779Z,1.70
2019-01-08T22:58:50.832Z,1.80
2019-01-08T23:01:27.314Z,1.70
2019-01-08T23:03:57.378Z,1.70
2019-01-08T23:06:27.417Z,1.60
2019-01-08T23:08:57.465Z,1.60
2019-01-08T23:11:27.482Z,1.60
2019-01-08T23:13:57.575Z,1.60
2019-01-08T23:16:27.711Z,1.70
2019-01-08T23:18:57.713Z,1.70
2019-01-08T23:21:27.751Z,1.60
2019-01-08T23:23:59.479Z,1.70
2019-01-08T23:26:29.578Z,1.60
2019-01-08T23:28:59.700Z,1.50
2019-01-08T23:31:29.737Z,1.50
2019-01-08T23:33:59.884Z,1.50
2019-01-08T23:36:29.893Z,1.50
2019-01-08T23:38:59.875Z,1.60
2019-01-08T23:41:29.956Z,1.60
2019-01-08T23:43:59.947Z,1.60
2019-01-08T23:46:29.909Z,1.50
2019-01-08T23:48:59.890Z,1.60
2019-01-08T23:51:29.861Z,1.50
2019-01-08T23:54:00.520Z,1.60
2019-01-08T23:56:32.003Z,1.50
2019-01-08T23:59:02.011Z,1.40
